Time;durP1;ratioP1;P1;durP2;ratioP2;P2;SDS_P1;SDS_P2;PMS_P1;PMS_P2;Temp;Humidity;BMP_temperature;BMP_pressure;BME280_temperature;BME280_humidity;BME280_pressure;Samples;Min_cycle;Max_cycle;Signal;HPM_P1;HPM_P2
2023/09/12 00:01:32;;;;;;;17.20;10.77;;;19.60;76.00;;;;;;4905132;29;20126;-95
2023/09/12 00:03:59;;;;;;;13.68;9.57;;;19.50;76.10;;;;;;4904694;29;20505;-94
2023/09/12 00:06:27;;;;;;;18.27;10.13;;;19.50;76.30;;;;;;4921257;29;20044;-95
2023/09/12 00:08:54;;;;;;;15.20;10.00;;;19.50;76.40;;;;;;4906450;29;20115;-96
2023/09/12 00:11:25;;;;;;;18.20;10.98;;;19.50;76.30;;;;;;4906820;29;20063;-95
2023/09/12 00:13:54;;;;;;;15.55;10.85;;;19.50;76.30;;;;;;4922679;29;20047;-96
2023/09/12 00:16:21;;;;;;;17.33;10.43;;;19.40;76.40;;;;;;4906022;29;20051;-96
2023/09/12 00:18:48;;;;;;;15.45;10.50;;;19.40;76.40;;;;;;4905204;29;20047;-96
2023/09/12 00:21:15;;;;;;;20.20;11.00;;;19.40;76.40;;;;;;4920257;29;20040;-95
2023/09/12 00:23:43;;;;;;;16.10;10.57;;;19.40;76.50;;;;;;4920690;29;20517;-96
2023/09/12 00:26:10;;;;;;;15.63;10.77;;;19.40;76.40;;;;;;4905111;29;20048;-95
2023/09/12 00:28:38;;;;;;;18.50;10.30;;;19.40;76.50;;;;;;4920134;29;20572;-94
2023/09/12 00:31:06;;;;;;;16.08;10.43;;;19.40;76.50;;;;;;4920276;29;20558;-94
2023/09/12 00:33:35;;;;;;;16.33;10.30;;;19.30;76.50;;;;;;4920138;29;20405;-95
2023/09/12 00:36:03;;;;;;;15.95;10.20;;;19.30;76.70;;;;;;4904750;29;20413;-95
2023/09/12 00:38:30;;;;;;;14.82;9.90;;;19.30;76.80;;;;;;4920337;29;20143;-96
2023/09/12 00:40:57;;;;;;;17.27;10.65;;;19.30;76.70;;;;;;4920279;29;20044;-94
2023/09/12 00:43:25;;;;;;;16.58;10.45;;;19.30;76.80;;;;;;4920555;29;20047;-96
2023/09/12 00:45:52;;;;;;;17.77;10.20;;;19.30;76.80;;;;;;4905379;29;20114;-96
2023/09/12 00:48:21;;;;;;;16.25;10.70;;;19.30;76.70;;;;;;4921748;29;20401;-96
2023/09/12 00:50:51;;;;;;;17.55;10.05;;;19.30;76.60;;;;;;4904692;29;20051;-95
2023/09/12 00:53:20;;;;;;;16.13;10.73;;;19.30;76.50;;;;;;4919859;29;20054;-95
2023/09/12 00:55:56;;;;;;;14.95;10.18;;;19.20;76.60;;;;;;4924633;29;20054;-96
2023/09/12 00:58:25;;;;;;;14.93;9.90;;;19.20;76.70;;;;;;4906060;29;20043;-95
2023/09/12 01:00:53;;;;;;;15.05;10.02;;;19.20;76.60;;;;;;4905596;29;20044;-95
2023/09/12 01:03:20;;;;;;;14.27;9.80;;;19.20;76.60;;;;;;4922613;29;20146;-95
2023/09/12 01:05:48;;;;;;;14.40;10.00;;;19.20;76.50;;;;;;4907289;29;20557;-96
2023/09/12 01:08:15;;;;;;;15.68;9.45;;;19.20;76.40;;;;;;4920316;29;20040;-94
2023/09/12 01:10:45;;;;;;;14.40;9.57;;;19.20;76.40;;;;;;4906009;29;20560;-95
2023/09/12 01:13:17;;;;;;;16.05;10.13;;;19.20;76.40;;;;;;4920267;29;20062;-95
2023/09/12 01:15:44;;;;;;;16.60;10.23;;;19.20;76.50;;;;;;4922333;29;20501;-95
2023/09/12 01:18:11;;;;;;;12.68;8.73;;;19.20;76.40;;;;;;4920004;29;20055;-94
2023/09/12 01:20:51;;;;;;;14.48;10.00;;;19.20;76.40;;;;;;4903724;29;20482;-93
2023/09/12 01:23:40;;;;;;;15.27;9.20;;;19.10;76.50;;;;;;4919602;29;20143;-93
2023/09/12 01:26:15;;;;;;;14.85;8.48;;;19.10;76.50;;;;;;4919798;29;20434;-93
2023/09/12 01:28:45;;;;;;;13.82;9.13;;;19.10;76.40;;;;;;4921839;29;20139;-92
2023/09/12 01:31:14;;;;;;;15.98;9.27;;;19.10;76.40;;;;;;4923022;29;20052;-93
2023/09/12 01:33:41;;;;;;;16.20;9.40;;;19.10;76.40;;;;;;4907604;29;20497;-95
2023/09/12 01:36:10;;;;;;;15.40;9.27;;;19.10;76.50;;;;;;4923384;29;20048;-93
2023/09/12 01:38:37;;;;;;;15.45;9.98;;;19.20;76.40;;;;;;4922919;29;20048;-92
2023/09/12 01:41:06;;;;;;;13.63;9.70;;;19.20;76.40;;;;;;4907561;29;20047;-92
2023/09/12 01:43:36;;;;;;;15.27;9.80;;;19.20;76.50;;;;;;4923098;29;20134;-93
2023/09/12 01:46:03;;;;;;;14.18;8.80;;;19.20;76.50;;;;;;4922605;29;20095;-93
2023/09/12 01:48:36;;;;;;;13.27;9.43;;;19.10;76.60;;;;;;4922630;29;20409;-94
2023/09/12 01:51:05;;;;;;;16.75;9.52;;;19.10;76.60;;;;;;4906883;29;20528;-93
2023/09/12 01:53:34;;;;;;;16.05;9.82;;;19.10;76.70;;;;;;4922587;29;20050;-93
2023/09/12 01:56:02;;;;;;;16.63;10.30;;;19.10;76.60;;;;;;4906868;29;20047;-93
2023/09/12 01:58:32;;;;;;;14.20;10.05;;;19.10;76.60;;;;;;4907145;29;20111;-93
2023/09/12 02:01:02;;;;;;;16.53;9.57;;;19.10;76.70;;;;;;4922500;29;20417;-93
2023/09/12 02:03:30;;;;;;;13.65;9.40;;;19.10;76.70;;;;;;4906869;29;20114;-93
2023/09/12 02:05:57;;;;;;;16.83;10.50;;;19.10;76.80;;;;;;4922601;29;20528;-93
2023/09/12 02:08:25;;;;;;;17.08;10.07;;;19.00;76.90;;;;;;4906655;29;20067;-93
2023/09/12 02:10:52;;;;;;;15.40;10.23;;;19.00;77.20;;;;;;4907560;29;20490;-93
2023/09/12 02:13:19;;;;;;;16.77;10.10;;;18.90;77.40;;;;;;4922264;29;20074;-93
2023/09/12 02:15:46;;;;;;;16.45;10.68;;;18.80;77.50;;;;;;4906598;29;20044;-93
2023/09/12 02:18:15;;;;;;;14.43;11.13;;;18.80;77.80;;;;;;4923497;29;20052;-93
2023/09/12 02:20:45;;;;;;;14.13;10.85;;;18.70;77.90;;;;;;4921726;29;20039;-93
2023/09/12 02:23:13;;;;;;;19.25;11.57;;;18.70;78.00;;;;;;4922062;29;20044;-94
2023/09/12 02:25:40;;;;;;;16.50;11.40;;;18.70;78.00;;;;;;4921820;29;20135;-93
2023/09/12 02:28:07;;;;;;;18.90;11.13;;;18.60;78.00;;;;;;4922100;29;20401;-94
2023/09/12 02:30:37;;;;;;;15.90;11.35;;;18.60;78.00;;;;;;4923685;29;20079;-94
2023/09/12 02:33:05;;;;;;;17.85;11.07;;;18.60;78.20;;;;;;4922622;29;20048;-93
2023/09/12 02:35:32;;;;;;;17.08;11.40;;;18.60;78.30;;;;;;4921775;29;20052;-93
2023/09/12 02:37:59;;;;;;;17.00;10.77;;;18.60;78.40;;;;;;4906039;29;20055;-93
2023/09/12 02:40:26;;;;;;;14.98;10.75;;;18.60;78.40;;;;;;4920530;29;20107;-92
2023/09/12 02:42:53;;;;;;;16.83;11.25;;;18.60;78.40;;;;;;4906066;29;20438;-92
2023/09/12 02:45:20;;;;;;;15.32;11.30;;;18.70;78.20;;;;;;4921915;29;20048;-93
2023/09/12 02:47:47;;;;;;;16.10;11.57;;;18.60;78.30;;;;;;4921864;29;20052;-92
2023/09/12 02:50:15;;;;;;;15.87;11.97;;;18.60;78.40;;;;;;4921784;29;20497;-92
2023/09/12 02:52:42;;;;;;;16.42;11.73;;;18.60;78.50;;;;;;4906096;29;20052;-92
2023/09/12 02:55:12;;;;;;;17.60;11.40;;;18.60;78.50;;;;;;4921483;29;20573;-92
2023/09/12 02:57:39;;;;;;;15.32;9.98;;;18.60;78.60;;;;;;4921991;29;20059;-93
2023/09/12 03:00:09;;;;;;;17.95;10.98;;;18.60;78.60;;;;;;4906230;29;20062;-92
2023/09/12 03:02:36;;;;;;;19.77;11.27;;;18.60;78.50;;;;;;4921506;29;20142;-93
2023/09/12 03:05:04;;;;;;;15.10;10.95;;;18.60;78.60;;;;;;4925948;29;20077;-94
2023/09/12 03:07:31;;;;;;;15.65;11.65;;;18.60;78.40;;;;;;4940380;29;20043;-93
2023/09/12 03:09:59;;;;;;;16.52;11.52;;;18.60;78.40;;;;;;4924915;29;20505;-92
2023/09/12 03:12:26;;;;;;;16.83;11.48;;;18.60;78.50;;;;;;4924739;29;20059;-93
2023/09/12 03:14:53;;;;;;;16.37;11.80;;;18.60;78.50;;;;;;4924575;29;20054;-94
2023/09/12 03:17:20;;;;;;;16.88;11.45;;;18.50;78.60;;;;;;4940659;29;20147;-94
2023/09/12 03:19:48;;;;;;;17.08;11.43;;;18.50;78.60;;;;;;4925283;29;20050;-94
2023/09/12 03:22:16;;;;;;;15.88;11.55;;;18.50;78.70;;;;;;4924799;29;20103;-92
2023/09/12 03:24:45;;;;;;;18.25;12.02;;;18.40;78.80;;;;;;4924698;29;20043;-92
2023/09/12 03:27:12;;;;;;;18.77;11.67;;;18.40;78.90;;;;;;4924875;29;20039;-92
2023/09/12 03:29:40;;;;;;;18.05;11.50;;;18.40;79.00;;;;;;4924522;29;20461;-92
2023/09/12 03:32:07;;;;;;;16.13;11.77;;;18.30;79.10;;;;;;4924523;29;20067;-93
2023/09/12 03:34:34;;;;;;;18.92;11.35;;;18.40;79.10;;;;;;4924474;29;20051;-92
2023/09/12 03:37:02;;;;;;;17.45;11.77;;;18.30;79.00;;;;;;4924650;29;20417;-92
2023/09/12 03:39:32;;;;;;;18.47;11.57;;;18.30;79.20;;;;;;4924690;29;20398;-92
2023/09/12 03:42:00;;;;;;;16.38;11.07;;;18.30;79.20;;;;;;4924245;29;20043;-92
2023/09/12 03:44:27;;;;;;;15.82;11.40;;;18.30;79.30;;;;;;4924369;29;20493;-92
2023/09/12 03:46:54;;;;;;;19.58;11.77;;;18.30;79.40;;;;;;4924374;29;20070;-91
2023/09/12 03:49:22;;;;;;;14.73;11.32;;;18.20;79.30;;;;;;4924354;29;20051;-91
2023/09/12 03:51:49;;;;;;;17.73;11.43;;;18.20;79.30;;;;;;4923588;29;20062;-94
2023/09/12 03:54:17;;;;;;;16.13;11.82;;;18.20;79.40;;;;;;4924283;29;20417;-92
2023/09/12 03:56:44;;;;;;;17.48;12.85;;;18.20;79.30;;;;;;4924326;29;20113;-91
2023/09/12 03:59:13;;;;;;;17.30;12.20;;;18.20;79.30;;;;;;4924212;29;20086;-91
2023/09/12 04:01:40;;;;;;;16.48;11.77;;;18.20;79.30;;;;;;4924020;29;20440;-91
2023/09/12 04:04:08;;;;;;;17.60;11.57;;;18.10;79.40;;;;;;4924020;29;20236;-91
2023/09/12 04:06:35;;;;;;;15.65;11.55;;;18.10;79.40;;;;;;4924244;29;20497;-91
2023/09/12 04:09:03;;;;;;;16.23;11.93;;;18.10;79.50;;;;;;4923984;29;20493;-92
2023/09/12 04:11:30;;;;;;;16.25;11.63;;;18.10;79.60;;;;;;4924030;29;20059;-93
2023/09/12 04:14:16;;;;;;;16.42;10.80;;;18.10;79.60;;;;;;4925922;29;20043;-91
2023/09/12 04:16:43;;;;;;;15.87;11.83;;;18.10;79.60;;;;;;4924866;29;20055;-91
2023/09/12 04:19:11;;;;;;;17.08;11.60;;;18.10;79.60;;;;;;4925646;29;20060;-91
2023/09/12 04:21:38;;;;;;;17.38;12.20;;;18.10;79.60;;;;;;4924099;29;20134;-92
2023/09/12 04:24:06;;;;;;;15.82;11.95;;;18.10;79.50;;;;;;4924510;29;20055;-93
2023/09/12 05:06:11;;;;;;;14.65;11.00;;;18.20;79.20;;;;;;5337253;23;20043;-94
2023/09/12 05:16:07;;;;;;;17.08;10.30;;;18.30;79.10;;;;;;5303541;23;20042;-90
2023/09/12 05:18:45;;;;;;;14.57;10.30;;;18.30;78.90;;;;;;4869195;29;20060;-94
2023/09/12 05:21:12;;;;;;;14.93;10.93;;;18.50;78.70;;;;;;4870773;29;20041;-94
2023/09/12 05:23:40;;;;;;;15.45;10.35;;;18.50;78.70;;;;;;4866534;29;20500;-94
2023/09/12 05:26:07;;;;;;;16.35;10.85;;;18.50;78.50;;;;;;4866441;29;20042;-94
2023/09/12 05:28:34;;;;;;;16.90;10.05;;;18.50;78.60;;;;;;4868100;29;20101;-96
2023/09/12 06:06:06;;;;;;;15.57;10.63;;;19.10;77.40;;;;;;4851873;29;20042;-95
2023/09/12 06:08:37;;;;;;;15.00;10.85;;;19.30;76.80;;;;;;4819198;29;20050;-94
2023/09/12 06:17:43;;;;;;;13.38;10.00;;;19.60;76.00;;;;;;5429377;23;20472;-95
2023/09/12 06:20:36;;;;;;;15.13;9.90;;;19.70;75.70;;;;;;4902041;29;20055;-96
2023/09/12 06:23:16;;;;;;;15.43;9.50;;;19.80;76.00;;;;;;4892180;29;20391;-96
2023/09/12 06:26:25;;;;;;;13.83;9.63;;;20.00;75.40;;;;;;4874176;29;20116;-95
2023/09/12 06:29:29;;;;;;;13.23;9.50;;;20.10;75.50;;;;;;4884321;29;20124;-95
2023/09/12 06:32:42;;;;;;;15.77;10.43;;;20.10;74.70;;;;;;4873716;29;20060;-94
2023/09/12 06:36:07;;;;;;;12.88;8.85;;;20.20;74.70;;;;;;4893666;29;20059;-95
2023/09/12 06:43:35;;;;;;;15.73;9.97;;;20.60;74.80;;;;;;4903198;29;20163;-94
2023/09/12 06:46:03;;;;;;;14.90;9.88;;;20.80;74.10;;;;;;4869120;29;20045;-94
2023/09/12 06:48:30;;;;;;;13.32;9.70;;;20.90;74.20;;;;;;4874731;29;20052;-92
2023/09/12 06:50:57;;;;;;;14.07;9.73;;;21.00;73.80;;;;;;4887496;29;20087;-95
2023/09/12 06:53:25;;;;;;;15.10;9.50;;;21.00;73.20;;;;;;4869585;29;20059;-91
2023/09/12 06:55:53;;;;;;;13.37;9.83;;;21.10;73.30;;;;;;4883841;29;20052;-91
2023/09/12 06:58:20;;;;;;;13.63;9.15;;;21.10;73.40;;;;;;4868393;29;20048;-91
2023/09/12 07:00:47;;;;;;;15.30;10.32;;;21.30;72.60;;;;;;4883533;29;20059;-90
2023/09/12 07:03:14;;;;;;;12.60;9.57;;;21.40;73.20;;;;;;4884190;29;20045;-93
2023/09/12 07:05:43;;;;;;;13.10;9.52;;;21.60;72.80;;;;;;4884028;29;20143;-92
2023/09/12 07:08:11;;;;;;;14.57;9.73;;;21.70;72.40;;;;;;4884009;29;20140;-93
2023/09/12 07:10:45;;;;;;;14.45;9.55;;;21.80;71.90;;;;;;4868734;29;20418;-91
2023/09/12 07:13:13;;;;;;;12.43;9.50;;;22.00;71.40;;;;;;4883614;29;20100;-92
2023/09/12 07:15:40;;;;;;;16.42;10.25;;;22.00;71.50;;;;;;4868606;29;20063;-93
2023/09/12 07:18:07;;;;;;;13.55;9.27;;;22.10;71.40;;;;;;4883948;29;20570;-90
2023/09/12 07:20:35;;;;;;;12.83;9.33;;;22.10;70.90;;;;;;4868572;29;20048;-92
2023/09/12 07:23:02;;;;;;;13.15;9.20;;;22.10;70.70;;;;;;4884005;29;20044;-91
2023/09/12 07:25:29;;;;;;;11.85;9.23;;;22.30;70.40;;;;;;4867823;29;20051;-92
2023/09/12 07:27:56;;;;;;;13.77;8.43;;;22.40;69.80;;;;;;4868929;29;20044;-91
2023/09/12 07:30:23;;;;;;;14.25;9.00;;;22.50;69.20;;;;;;4868553;29;20064;-92
2023/09/12 07:32:51;;;;;;;14.80;9.13;;;22.60;69.90;;;;;;4883234;29;20052;-92
2023/09/12 07:35:20;;;;;;;15.10;8.50;;;22.80;68.70;;;;;;4867843;29;20048;-92
2023/09/12 07:37:47;;;;;;;11.88;8.68;;;22.90;68.40;;;;;;4868322;29;20503;-91
2023/09/12 07:40:14;;;;;;;13.70;8.88;;;23.00;68.70;;;;;;4883337;29;20049;-91
2023/09/12 07:42:41;;;;;;;13.63;8.18;;;23.10;68.70;;;;;;4867940;29;20147;-93
2023/09/12 07:45:09;;;;;;;12.07;8.30;;;23.30;68.70;;;;;;4867927;29;20055;-93
2023/09/12 07:47:36;;;;;;;14.77;8.55;;;23.40;67.00;;;;;;4883079;29;20098;-91
2023/09/12 07:50:06;;;;;;;11.98;8.32;;;23.50;67.60;;;;;;4867728;29;20055;-92
2023/09/12 07:52:34;;;;;;;12.43;8.48;;;23.60;66.40;;;;;;4883177;29;20044;-93
2023/09/12 07:55:04;;;;;;;12.70;8.27;;;23.60;66.00;;;;;;4867745;29;20049;-90
2023/09/12 07:57:32;;;;;;;11.30;6.93;;;23.70;66.40;;;;;;4882736;29;20511;-92
2023/09/12 07:59:59;;;;;;;12.43;7.05;;;23.80;66.10;;;;;;4867904;29;20108;-92
2023/09/12 08:02:26;;;;;;;11.15;6.57;;;23.80;65.90;;;;;;4867493;29;20388;-93
2023/09/12 08:04:53;;;;;;;12.32;6.95;;;23.90;66.00;;;;;;4867422;29;20518;-94
2023/09/12 08:07:21;;;;;;;17.63;7.82;;;24.10;65.70;;;;;;4882839;29;20044;-92
2023/09/12 08:09:56;;;;;;;11.07;7.07;;;24.20;66.50;;;;;;4867135;29;20463;-93
2023/09/12 08:12:27;;;;;;;12.05;6.97;;;24.30;64.70;;;;;;4883116;29;20048;-92
2023/09/12 08:14:55;;;;;;;11.55;7.35;;;24.40;64.30;;;;;;4883528;29;20440;-93
2023/09/12 08:17:23;;;;;;;11.40;6.50;;;24.50;64.70;;;;;;4867571;29;20452;-92
2023/09/12 08:19:50;;;;;;;13.80;6.43;;;24.50;63.40;;;;;;4883268;29;20052;-92
2023/09/12 08:22:18;;;;;;;12.87;6.77;;;24.60;64.30;;;;;;4882927;29;20131;-92
2023/09/12 08:24:45;;;;;;;12.45;7.53;;;24.70;63.70;;;;;;4867395;29;20506;-93
2023/09/12 08:27:13;;;;;;;11.95;6.78;;;24.80;64.20;;;;;;4867502;29;20044;-92
2023/09/12 08:29:43;;;;;;;12.02;6.95;;;24.90;63.30;;;;;;4867193;29;20053;-92
2023/09/12 08:32:10;;;;;;;10.90;6.88;;;25.00;63.30;;;;;;4882718;29;20056;-92
2023/09/12 08:34:37;;;;;;;10.83;7.00;;;25.00;63.60;;;;;;4868001;29;20077;-92
2023/09/12 08:37:05;;;;;;;12.05;7.05;;;25.10;63.60;;;;;;4849646;29;20081;-92
2023/09/12 08:39:43;;;;;;;11.88;7.30;;;25.10;63.90;;;;;;4868259;29;20060;-92
2023/09/12 08:42:15;;;;;;;12.00;6.90;;;25.30;62.20;;;;;;4855747;29;20045;-92
2023/09/12 08:44:43;;;;;;;13.80;7.30;;;25.30;60.90;;;;;;4872357;29;20072;-92
2023/09/12 08:47:12;;;;;;;13.17;7.40;;;25.40;61.80;;;;;;4884535;29;20048;-91
2023/09/12 08:49:39;;;;;;;11.18;6.80;;;25.50;61.10;;;;;;4887252;29;20108;-93
2023/09/12 08:52:06;;;;;;;14.60;7.53;;;25.60;61.30;;;;;;4871405;29;20499;-92
2023/09/12 08:54:34;;;;;;;9.90;6.88;;;25.60;60.60;;;;;;4871316;29;20068;-92
2023/09/12 08:57:06;;;;;;;17.50;6.47;;;25.70;60.30;;;;;;4870081;29;20052;-92
2023/09/12 08:59:34;;;;;;;11.23;6.70;;;25.80;61.00;;;;;;4870503;29;20057;-92
2023/09/12 09:02:05;;;;;;;10.80;6.82;;;25.90;59.70;;;;;;4873347;29;20049;-93
2023/09/12 09:04:34;;;;;;;11.07;6.20;;;26.00;59.20;;;;;;4860829;29;20550;-92
2023/09/12 09:07:03;;;;;;;14.23;6.72;;;26.10;57.10;;;;;;4870498;29;20047;-92
2023/09/12 09:09:32;;;;;;;11.88;6.65;;;26.10;57.90;;;;;;4882314;29;20057;-92
2023/09/12 09:11:59;;;;;;;10.43;6.33;;;26.10;58.20;;;;;;4878803;29;20135;-92
2023/09/12 09:14:26;;;;;;;10.70;6.55;;;26.20;58.00;;;;;;4878151;29;20055;-92
2023/09/12 09:16:54;;;;;;;15.25;7.10;;;26.30;58.70;;;;;;4882984;29;20075;-92
2023/09/12 09:19:21;;;;;;;11.60;6.53;;;26.40;57.90;;;;;;4867145;29;20065;-93
2023/09/12 09:21:48;;;;;;;13.48;6.90;;;26.50;56.80;;;;;;4868559;29;20053;-92
2023/09/12 09:24:17;;;;;;;12.53;7.30;;;26.50;56.90;;;;;;4885844;29;20052;-92
2023/09/12 09:26:49;;;;;;;13.80;6.90;;;26.60;56.10;;;;;;4870083;29;20289;-93
2023/09/12 09:29:18;;;;;;;16.55;6.95;;;26.60;55.90;;;;;;4884339;29;20052;-92
2023/09/12 09:31:48;;;;;;;13.95;6.45;;;26.60;56.10;;;;;;4884999;29;20415;-92
2023/09/12 09:34:19;;;;;;;12.02;6.88;;;26.70;56.10;;;;;;4863449;29;20112;-92
2023/09/12 09:36:51;;;;;;;16.17;7.00;;;26.80;55.10;;;;;;4878245;29;20414;-92
2023/09/12 09:39:27;;;;;;;13.65;7.60;;;26.80;54.90;;;;;;4871976;29;20052;-92
2023/09/12 09:41:56;;;;;;;11.07;6.82;;;26.80;55.50;;;;;;4851460;29;20049;-92
2023/09/12 09:44:26;;;;;;;10.98;6.40;;;27.00;57.10;;;;;;4855809;29;20444;-92
2023/09/12 09:47:03;;;;;;;12.10;6.60;;;27.10;55.70;;;;;;4857857;29;20407;-93
2023/09/12 09:49:36;;;;;;;17.43;6.77;;;27.10;54.20;;;;;;4880140;29;20056;-93
2023/09/12 09:52:05;;;;;;;17.42;7.05;;;27.10;52.90;;;;;;4862335;29;20053;-92
2023/09/12 09:54:32;;;;;;;13.63;6.90;;;27.10;55.00;;;;;;4869929;29;20139;-93
2023/09/12 09:56:59;;;;;;;12.75;7.03;;;27.10;53.30;;;;;;4885008;29;20055;-92
2023/09/12 09:59:27;;;;;;;14.48;6.50;;;27.10;53.00;;;;;;4875466;29;20044;-93
2023/09/12 10:01:59;;;;;;;14.07;6.57;;;27.10;54.10;;;;;;4881004;29;20059;-92
2023/09/12 10:04:28;;;;;;;13.27;7.05;;;27.20;52.90;;;;;;4885364;29;20155;-93
2023/09/12 10:06:57;;;;;;;11.50;6.70;;;27.20;52.60;;;;;;4884175;29;20076;-94
2023/09/12 10:09:30;;;;;;;13.82;6.57;;;27.30;52.60;;;;;;4869637;29;20522;-95
2023/09/12 10:11:58;;;;;;;9.90;6.22;;;27.30;52.90;;;;;;4869646;29;20099;-93
2023/09/12 10:14:28;;;;;;;11.13;6.97;;;27.30;52.50;;;;;;4869516;29;20100;-94
2023/09/12 10:17:01;;;;;;;13.85;6.88;;;27.40;53.30;;;;;;4884879;29;20054;-93
2023/09/12 10:19:41;;;;;;;11.35;6.63;;;27.50;56.00;;;;;;4869910;29;20057;-94
2023/09/12 10:22:27;;;;;;;18.02;6.68;;;27.60;55.70;;;;;;4884568;29;20193;-94
2023/09/12 10:24:57;;;;;;;17.50;6.80;;;27.70;55.00;;;;;;4884982;29;20056;-92
2023/09/12 10:27:25;;;;;;;10.83;6.10;;;27.70;54.10;;;;;;4861041;29;20527;-92
2023/09/12 10:29:53;;;;;;;11.32;5.60;;;27.80;52.80;;;;;;4866559;29;20140;-94
2023/09/12 10:32:22;;;;;;;15.57;7.72;;;27.80;52.40;;;;;;4850984;29;20049;-94
2023/09/12 10:34:50;;;;;;;14.80;7.18;;;27.90;54.00;;;;;;4881998;29;20399;-93
2023/09/12 10:37:21;;;;;;;12.55;6.72;;;28.00;54.10;;;;;;4869154;29;20041;-94
2023/09/12 10:39:50;;;;;;;10.03;6.50;;;28.10;53.00;;;;;;4869268;29;20472;-95
2023/09/12 10:42:26;;;;;;;13.57;6.85;;;28.10;50.90;;;;;;4869229;29;20068;-93
2023/09/12 10:44:55;;;;;;;14.90;7.05;;;28.10;51.60;;;;;;4884706;29;20502;-93
2023/09/12 10:47:23;;;;;;;11.63;6.43;;;28.10;54.30;;;;;;4869075;29;20044;-93
2023/09/12 10:49:50;;;;;;;11.80;7.22;;;28.10;51.30;;;;;;4884448;29;20075;-94
2023/09/12 10:52:25;;;;;;;9.83;6.43;;;28.10;49.70;;;;;;4865295;29;20048;-92
2023/09/12 10:54:53;;;;;;;29.08;7.15;;;28.10;52.00;;;;;;4861885;29;20053;-93
2023/09/12 10:57:21;;;;;;;11.70;6.50;;;28.20;51.30;;;;;;4868098;29;20507;-92
2023/09/12 11:00:08;;;;;;;10.80;6.18;;;28.30;51.80;;;;;;4876892;29;20083;-92
2023/09/12 11:02:38;;;;;;;10.50;6.38;;;28.30;51.90;;;;;;4850901;29;20056;-95
2023/09/12 11:05:27;;;;;;;11.10;6.50;;;28.30;50.20;;;;;;4866506;29;20045;-95
2023/09/12 11:08:12;;;;;;;11.38;5.88;;;28.30;52.30;;;;;;4866820;29;20048;-96
2023/09/12 11:10:40;;;;;;;11.38;6.15;;;28.40;52.50;;;;;;4868300;29;20097;-94
2023/09/12 11:13:18;;;;;;;11.32;6.22;;;28.40;50.80;;;;;;4851517;29;20080;-94
2023/09/12 11:16:15;;;;;;;10.52;6.45;;;28.50;50.50;;;;;;4865937;29;20563;-96
2023/09/12 11:19:19;;;;;;;10.67;6.20;;;28.60;51.30;;;;;;4862813;29;20060;-95
2023/09/12 11:21:50;;;;;;;10.30;6.38;;;28.60;49.70;;;;;;4862590;29;20054;-95
2023/09/12 11:24:19;;;;;;;9.77;6.53;;;28.50;49.70;;;;;;4862338;29;20052;-95
2023/09/12 11:26:57;;;;;;;12.45;6.10;;;28.50;50.60;;;;;;4847058;29;20045;-95
2023/09/12 11:29:36;;;;;;;18.65;6.85;;;28.50;48.50;;;;;;4862156;29;20149;-95
2023/09/12 11:32:06;;;;;;;11.77;6.73;;;28.60;49.70;;;;;;4862175;29;20053;-95
2023/09/12 11:34:41;;;;;;;11.35;6.75;;;28.80;50.40;;;;;;4849855;29;20116;-96
2023/09/12 11:37:09;;;;;;;11.82;6.60;;;28.80;50.10;;;;;;4862119;29;20503;-94
2023/09/12 11:39:39;;;;;;;11.00;6.45;;;29.00;49.40;;;;;;4847000;29;20045;-95
2023/09/12 11:42:13;;;;;;;11.90;6.38;;;29.00;48.40;;;;;;4862215;29;20045;-95
2023/09/12 11:49:06;;;;;;;18.48;7.03;;;29.10;50.80;;;;;;4863471;29;20454;-94
2023/09/12 11:51:33;;;;;;;12.07;6.60;;;29.10;50.70;;;;;;4861875;29;20058;-94
2023/09/12 11:54:01;;;;;;;11.18;6.40;;;29.10;51.60;;;;;;4861829;29;20053;-94
2023/09/12 11:56:30;;;;;;;12.10;6.50;;;29.10;49.70;;;;;;4846424;29;20057;-93
2023/09/12 11:59:00;;;;;;;10.80;6.27;;;29.10;49.80;;;;;;4861461;29;20081;-93
2023/09/12 12:01:29;;;;;;;12.35;6.40;;;29.20;49.30;;;;;;4879200;29;20110;-94
2023/09/12 12:03:58;;;;;;;10.70;6.85;;;29.20;49.90;;;;;;4880075;29;20144;-93
2023/09/12 12:06:25;;;;;;;13.05;6.28;;;29.20;49.50;;;;;;4864945;29;20041;-93
2023/09/12 12:08:54;;;;;;;10.35;6.40;;;29.20;50.80;;;;;;4879932;29;20147;-93
2023/09/12 12:11:21;;;;;;;11.20;6.30;;;29.20;51.60;;;;;;4864185;29;20538;-92
2023/09/12 12:13:49;;;;;;;13.40;7.03;;;29.30;51.20;;;;;;4864659;29;20527;-93
2023/09/12 12:16:17;;;;;;;11.10;6.72;;;29.40;51.50;;;;;;4864338;29;20091;-93
2023/09/12 12:18:44;;;;;;;10.13;6.20;;;29.50;49.50;;;;;;4864533;29;20080;-94
2023/09/12 12:21:12;;;;;;;11.07;6.60;;;29.40;50.00;;;;;;4864820;29;20073;-92
2023/09/12 12:23:39;;;;;;;9.80;6.83;;;29.50;50.30;;;;;;4879884;29;20053;-93
2023/09/12 12:26:10;;;;;;;13.10;6.53;;;29.50;49.10;;;;;;4864723;29;20045;-92
2023/09/12 12:28:38;;;;;;;12.50;7.03;;;29.40;47.40;;;;;;4864484;29;20045;-93
2023/09/12 12:31:05;;;;;;;11.38;6.32;;;29.40;47.70;;;;;;4867515;29;20049;-91
2023/09/12 12:33:53;;;;;;;9.80;6.60;;;29.50;49.10;;;;;;4881520;29;20157;-92
2023/09/12 12:36:42;;;;;;;14.80;6.90;;;29.50;47.10;;;;;;4861041;29;20094;-94
2023/09/12 12:39:23;;;;;;;10.68;6.15;;;29.50;48.30;;;;;;4861894;29;20492;-92
2023/09/12 12:41:54;;;;;;;12.23;6.38;;;29.60;47.90;;;;;;4846268;29;20106;-92
2023/09/12 12:44:22;;;;;;;8.75;6.38;;;29.60;48.50;;;;;;4874658;29;20084;-92
2023/09/12 12:46:53;;;;;;;12.13;6.53;;;29.60;48.60;;;;;;4879795;29;20049;-92
2023/09/12 12:49:22;;;;;;;12.73;6.93;;;29.60;48.10;;;;;;4865577;29;20065;-93
2023/09/12 12:51:50;;;;;;;11.75;6.03;;;29.70;46.40;;;;;;4879585;29;20053;-92
2023/09/12 12:54:23;;;;;;;11.52;6.30;;;29.80;46.80;;;;;;4879246;29;20053;-93
2023/09/12 12:56:50;;;;;;;9.57;5.88;;;29.90;46.10;;;;;;4879928;29;20052;-93
2023/09/12 12:59:17;;;;;;;11.45;5.75;;;29.90;44.20;;;;;;4864359;29;20065;-92
2023/09/12 13:01:44;;;;;;;11.30;6.30;;;30.00;43.40;;;;;;4879606;29;20508;-94
2023/09/12 13:04:12;;;;;;;10.98;6.13;;;29.90;43.60;;;;;;4880129;29;20500;-93
2023/09/12 13:06:40;;;;;;;10.93;6.20;;;30.10;44.20;;;;;;4846387;29;20408;-93
2023/09/12 13:09:11;;;;;;;9.63;6.20;;;30.10;44.40;;;;;;4846134;29;20050;-95
2023/09/12 13:11:38;;;;;;;10.77;6.78;;;30.10;45.50;;;;;;4861300;29;20520;-93
2023/09/12 13:14:11;;;;;;;12.83;6.63;;;30.10;46.80;;;;;;4846311;29;20106;-96
2023/09/12 13:16:40;;;;;;;10.00;5.97;;;30.10;47.20;;;;;;4861042;29;20096;-93
2023/09/12 13:19:10;;;;;;;11.95;6.43;;;30.10;45.50;;;;;;4845492;29;20053;-93
2023/09/12 13:21:38;;;;;;;9.65;5.75;;;30.20;43.50;;;;;;4845412;29;20526;-94
2023/09/12 13:24:13;;;;;;;13.10;6.03;;;30.20;44.00;;;;;;4850555;29;20050;-96
2023/09/12 13:26:40;;;;;;;11.97;6.47;;;30.30;45.60;;;;;;4848808;29;20053;-91
2023/09/12 13:29:07;;;;;;;12.30;6.50;;;30.30;44.40;;;;;;4865746;29;20064;-92
2023/09/12 13:31:34;;;;;;;13.25;5.95;;;30.30;44.10;;;;;;4882963;29;20053;-92
2023/09/12 13:34:02;;;;;;;10.95;5.90;;;30.30;45.40;;;;;;4880401;29;20053;-90
2023/09/12 13:36:30;;;;;;;10.50;6.55;;;30.30;43.80;;;;;;4874652;29;20114;-91
2023/09/12 13:38:57;;;;;;;10.20;6.10;;;30.40;43.90;;;;;;4899829;29;20059;-91
2023/09/12 13:41:25;;;;;;;13.15;6.10;;;30.40;44.80;;;;;;4900963;29;20048;-92
2023/09/12 13:43:52;;;;;;;11.02;5.80;;;30.30;46.00;;;;;;4880354;29;20041;-91
2023/09/12 13:46:19;;;;;;;14.07;6.97;;;30.20;43.70;;;;;;4872676;29;20089;-91
2023/09/12 13:48:47;;;;;;;12.07;7.35;;;30.20;45.30;;;;;;4875206;29;20041;-91
2023/09/12 13:51:16;;;;;;;11.30;7.07;;;30.20;45.90;;;;;;4877083;29;20049;-92
2023/09/12 13:53:43;;;;;;;12.05;6.55;;;30.30;45.30;;;;;;4870068;29;20136;-90
2023/09/12 13:56:11;;;;;;;24.63;7.47;;;30.20;44.20;;;;;;4872072;29;20045;-90
2023/09/12 13:58:38;;;;;;;11.07;6.25;;;30.20;45.60;;;;;;4865914;29;20044;-92
2023/09/12 14:01:05;;;;;;;12.90;6.38;;;30.20;45.60;;;;;;4876583;29;20041;-90
2023/09/12 14:03:33;;;;;;;13.90;6.37;;;30.30;45.90;;;;;;4865208;29;20048;-93
2023/09/12 14:06:01;;;;;;;25.15;7.15;;;30.20;46.50;;;;;;4867573;29;20072;-91
2023/09/12 14:08:29;;;;;;;11.35;6.43;;;30.10;45.30;;;;;;4862492;29;20499;-90
2023/09/12 14:10:56;;;;;;;11.32;6.47;;;30.10;44.30;;;;;;4863751;29;20083;-91
2023/09/12 14:13:23;;;;;;;11.23;5.93;;;30.10;43.50;;;;;;4862765;29;20045;-91
2023/09/12 14:15:51;;;;;;;10.67;5.67;;;30.10;43.70;;;;;;4863214;29;20045;-91
2023/09/12 14:18:20;;;;;;;11.45;6.50;;;30.20;44.60;;;;;;4880246;29;20053;-91
2023/09/12 14:20:50;;;;;;;9.75;5.90;;;30.10;43.70;;;;;;4866194;29;20079;-91
2023/09/12 14:23:20;;;;;;;11.98;6.32;;;30.10;43.00;;;;;;4881574;29;20053;-91
2023/09/12 14:25:48;;;;;;;10.43;6.30;;;30.10;43.20;;;;;;4881408;29;20426;-91